createdAt,value
2023-02-06T00:02:23.360Z,41.95
2023-02-06T00:09:06.805Z,39.20
2023-02-06T00:15:49.234Z,46.75
2023-02-06T00:22:32.151Z,40.38
2023-02-06T00:29:14.822Z,43.65
2023-02-06T00:35:57.190Z,40.60
2023-02-06T00:42:39.451Z,42.78
2023-02-06T00:49:22.018Z,41.72
2023-02-06T00:56:06.631Z,46.67
2023-02-06T01:02:49.098Z,40.40
2023-02-06T01:09:31.467Z,42.35
2023-02-06T01:16:16.612Z,45.20
2023-02-06T01:22:58.960Z,47.22
2023-02-06T01:29:41.228Z,44.08
2023-02-06T01:36:24.322Z,45.85
2023-02-06T01:43:16.657Z,43.95
2023-02-06T01:49:58.929Z,46.10
2023-02-06T01:56:49.734Z,46.35
2023-02-06T02:03:35.987Z,50.42
2023-02-06T02:10:18.644Z,47.95
2023-02-06T02:17:26.233Z,44.17
2023-02-06T02:24:26.975Z,46.13
2023-02-06T02:31:33.191Z,42.22
2023-02-06T02:38:33.892Z,46.70
2023-02-06T02:45:41.329Z,44.03
2023-02-06T02:52:23.808Z,45.20
2023-02-06T02:59:26.770Z,48.30
2023-02-06T03:06:15.586Z,44.05
2023-02-06T03:13:12.565Z,46.75
2023-02-06T03:19:58.197Z,45.35
2023-02-06T03:26:42.786Z,44.75
2023-02-06T03:33:31.233Z,43.58
2023-02-06T03:40:14.522Z,42.85
2023-02-06T03:46:59.993Z,47.78
2023-02-06T03:53:45.215Z,48.38
2023-02-06T04:00:29.452Z,42.00
2023-02-06T04:07:30.811Z,43.03
2023-02-06T04:14:13.131Z,48.50
2023-02-06T04:20:55.445Z,42.03
2023-02-06T04:27:38.361Z,46.22
2023-02-06T04:34:20.701Z,42.20
2023-02-06T04:41:05.311Z,43.72
2023-02-06T04:47:50.397Z,40.92
2023-02-06T04:54:32.891Z,40.70
2023-02-06T05:01:16.896Z,43.45
2023-02-06T05:07:59.247Z,44.00
2023-02-06T05:14:41.561Z,41.42
2023-02-06T05:21:24.574Z,44.35
2023-02-06T05:28:07.428Z,46.00
2023-02-06T05:34:49.997Z,38.50
2023-02-06T05:41:32.584Z,42.33
2023-02-06T05:48:15.012Z,43.97
2023-02-06T05:54:57.365Z,35.40
2023-02-06T06:01:39.796Z,34.38
2023-02-06T06:08:22.227Z,34.78
2023-02-06T06:15:04.834Z,30.40
2023-02-06T06:21:47.207Z,29.52
2023-02-06T06:28:29.659Z,30.02
2023-02-06T06:35:12.191Z,35.28
2023-02-06T06:41:54.498Z,28.83
2023-02-06T06:48:38.195Z,28.42
2023-02-06T06:55:20.557Z,32.08
2023-02-06T07:02:02.881Z,30.70
2023-02-06T07:08:45.631Z,31.63
2023-02-06T07:15:28.000Z,27.55
2023-02-06T07:22:10.367Z,25.77
2023-02-06T07:28:52.800Z,31.35
2023-02-06T07:35:35.515Z,26.30
2023-02-06T07:42:18.781Z,24.55
2023-02-06T07:49:08.846Z,26.50
2023-02-06T07:55:51.254Z,23.25
2023-02-06T08:02:33.629Z,20.73
2023-02-06T08:09:18.874Z,20.98
2023-02-06T08:16:05.886Z,20.95
2023-02-06T08:22:48.205Z,16.08
2023-02-06T08:29:30.750Z,13.20
2023-02-06T08:36:14.357Z,15.02
2023-02-06T08:42:56.697Z,12.63
2023-02-06T08:49:39.126Z,13.73
2023-02-06T08:56:21.438Z,13.48
2023-02-06T09:03:05.433Z,13.27
2023-02-06T09:09:47.764Z,13.52
2023-02-06T09:16:33.376Z,14.65
2023-02-06T09:23:17.932Z,11.77
2023-02-06T09:30:01.321Z,14.40
2023-02-06T09:36:43.596Z,14.75
2023-02-06T09:43:26.384Z,11.77
2023-02-06T09:50:30.695Z,12.95
2023-02-06T09:57:17.614Z,14.05
2023-02-06T10:04:26.057Z,11.93
2023-02-06T10:11:32.396Z,13.23
2023-02-06T10:18:39.196Z,11.02
2023-02-06T10:25:32.948Z,8.88
2023-02-06T10:32:55.488Z,11.00
2023-02-06T10:39:54.374Z,9.55
2023-02-06T10:46:42.833Z,9.10
2023-02-06T10:53:34.140Z,6.20
2023-02-06T11:00:26.279Z,6.60
2023-02-06T11:07:24.882Z,5.53
2023-02-06T11:14:12.819Z,5.57
2023-02-06T11:20:55.928Z,4.90
2023-02-06T11:27:44.326Z,5.40
2023-02-06T11:34:43.725Z,10.90
2023-02-06T11:41:26.515Z,8.88
2023-02-06T11:48:39.426Z,10.27
2023-02-06T11:55:23.342Z,8.60
2023-02-06T12:02:24.029Z,7.40
2023-02-06T12:09:13.526Z,7.80
2023-02-06T12:15:59.348Z,7.40
2023-02-06T12:23:01.184Z,8.30
2023-02-06T12:29:50.602Z,12.18
2023-02-06T12:36:51.635Z,7.90
2023-02-06T12:43:37.845Z,7.65
2023-02-06T12:50:23.306Z,9.65
2023-02-06T12:57:19.775Z,8.93
2023-02-06T13:04:06.438Z,7.20
2023-02-06T13:11:01.550Z,5.30
2023-02-06T13:17:44.757Z,4.07
2023-02-06T13:24:27.097Z,7.30
2023-02-06T13:31:25.363Z,4.07
2023-02-06T13:38:25.826Z,5.95
2023-02-06T13:45:19.866Z,4.78
2023-02-06T13:52:26.855Z,4.68
2023-02-06T13:59:29.420Z,5.10
2023-02-06T14:06:43.225Z,3.83
2023-02-06T14:13:46.516Z,4.47
2023-02-06T14:20:56.513Z,4.97
2023-02-06T14:27:59.822Z,3.08
2023-02-06T14:35:00.577Z,3.38
2023-02-06T14:41:43.016Z,3.72
2023-02-06T14:48:37.226Z,5.28
2023-02-06T14:55:34.275Z,4.22
2023-02-06T15:02:29.520Z,5.20
2023-02-06T15:09:37.675Z,3.25
2023-02-06T15:16:20.760Z,5.38
2023-02-06T15:23:17.257Z,4.85
2023-02-06T15:30:04.671Z,6.78
2023-02-06T15:36:47.295Z,5.00
2023-02-06T15:43:30.088Z,8.07
2023-02-06T15:50:21.308Z,6.47
2023-02-06T15:57:05.553Z,6.25
2023-02-06T16:03:53.560Z,8.88
2023-02-06T16:10:38.476Z,4.50
2023-02-06T16:17:47.308Z,5.53
2023-02-06T16:24:29.804Z,7.05
2023-02-06T16:31:14.652Z,8.65
2023-02-06T16:37:57.373Z,5.20
2023-02-06T16:44:45.305Z,7.10
2023-02-06T16:51:30.205Z,7.72
2023-02-06T16:58:18.456Z,10.13
2023-02-06T17:05:00.951Z,12.50
2023-02-06T17:11:43.307Z,8.20
2023-02-06T17:18:25.653Z,9.90
2023-02-06T17:25:08.340Z,8.50
2023-02-06T17:31:50.687Z,9.13
2023-02-06T17:38:33.178Z,10.52
2023-02-06T17:45:15.832Z,11.02
2023-02-06T17:51:58.236Z,9.68
2023-02-06T17:58:41.616Z,8.25
2023-02-06T18:05:24.373Z,8.88
2023-02-06T18:12:07.079Z,8.52
2023-02-06T18:18:50.042Z,7.38
2023-02-06T18:25:32.398Z,6.53
2023-02-06T18:32:14.803Z,7.68
2023-02-06T18:38:57.620Z,8.73
2023-02-06T18:45:41.082Z,6.07
2023-02-06T18:52:23.521Z,6.97
2023-02-06T18:59:06.308Z,7.85
2023-02-06T19:05:48.604Z,6.50
2023-02-06T19:12:30.948Z,7.43
2023-02-06T19:19:13.463Z,8.38
2023-02-06T19:25:55.741Z,5.03
2023-02-06T19:32:38.652Z,7.15
2023-02-06T19:39:21.039Z,6.57
2023-02-06T19:46:09.371Z,6.60
2023-02-06T19:52:52.185Z,7.35
2023-02-06T19:59:34.452Z,9.70
2023-02-06T20:06:17.639Z,8.63
2023-02-06T20:13:00.693Z,8.00
2023-02-06T20:19:42.993Z,9.60
2023-02-06T20:26:28.032Z,8.80
2023-02-06T20:33:10.407Z,7.68
2023-02-06T20:39:52.708Z,8.50
2023-02-06T20:46:36.290Z,11.05
2023-02-06T20:53:18.566Z,7.28
2023-02-06T21:00:00.882Z,8.20
2023-02-06T21:06:44.197Z,13.70
2023-02-06T21:13:26.513Z,11.88
2023-02-06T21:20:09.536Z,12.02
2023-02-06T21:26:51.841Z,11.70
2023-02-06T21:33:35.408Z,9.90
2023-02-06T21:40:17.847Z,10.35
2023-02-06T21:47:00.156Z,8.93
2023-02-06T21:53:43.724Z,9.43
2023-02-06T22:00:25.985Z,7.35
2023-02-06T22:07:09.284Z,8.43
2023-02-06T22:13:53.139Z,9.40
2023-02-06T22:20:35.385Z,10.30
2023-02-06T22:27:17.678Z,8.35
2023-02-06T22:34:00.552Z,8.90
2023-02-06T22:40:42.842Z,10.75
2023-02-06T22:47:25.229Z,11.77
2023-02-06T22:54:11.305Z,8.35
2023-02-06T23:01:01.744Z,9.10
2023-02-06T23:07:44.039Z,10.27
2023-02-06T23:14:28.347Z,8.13
2023-02-06T23:21:13.154Z,6.90
2023-02-06T23:27:55.502Z,9.70
2023-02-06T23:34:39.187Z,7.72
2023-02-06T23:41:25.384Z,10.23
2023-02-06T23:48:07.660Z,9.55
2023-02-06T23:54:51.141Z,8.73
